Time;durP1;ratioP1;P1;durP2;ratioP2;P2;SDS_P1;SDS_P2;PMS_P1;PMS_P2;Temp;Humidity;BMP_temperature;BMP_pressure;BME280_temperature;BME280_humidity;BME280_pressure;Samples;Min_cycle;Max_cycle;Signal;HPM_P1;HPM_P2
2023/07/26 00:02:21;;;;;;;3.92;2.00;;;15.30;99.90;;;;;;4920754;29;20043;-68
2023/07/26 00:04:46;;;;;;;7.03;2.42;;;15.20;99.90;;;;;;4921036;29;20042;-68
2023/07/26 00:07:12;;;;;;;3.42;2.30;;;15.20;99.90;;;;;;4920735;29;20043;-67
2023/07/26 00:09:37;;;;;;;6.32;2.75;;;14.90;99.90;;;;;;4920409;29;20048;-66
2023/07/26 00:12:03;;;;;;;4.85;2.40;;;15.20;99.90;;;;;;4937797;29;20040;-68
2023/07/26 00:14:29;;;;;;;4.40;2.03;;;15.30;99.90;;;;;;4952776;29;20530;-68
2023/07/26 00:16:55;;;;;;;5.15;2.22;;;15.20;99.90;;;;;;4952168;29;20051;-68
2023/07/26 00:19:23;;;;;;;3.92;2.00;;;15.10;99.90;;;;;;4937536;29;20044;-68
2023/07/26 00:21:49;;;;;;;3.78;2.35;;;15.20;99.90;;;;;;4952095;29;20039;-68
2023/07/26 00:24:15;;;;;;;6.38;2.67;;;15.20;99.90;;;;;;4920438;29;20044;-68
2023/07/26 00:26:41;;;;;;;5.97;2.10;;;15.20;99.90;;;;;;4904660;29;20043;-68
2023/07/26 00:29:06;;;;;;;2.63;1.90;;;15.20;99.90;;;;;;4954834;29;20515;-68
2023/07/26 00:31:32;;;;;;;4.05;2.60;;;15.30;99.90;;;;;;4939769;29;20125;-68
2023/07/26 00:33:57;;;;;;;4.13;2.20;;;15.20;99.90;;;;;;4920399;29;20047;-68
2023/07/26 00:36:23;;;;;;;3.05;2.40;;;15.00;99.90;;;;;;4920363;29;20032;-68
2023/07/26 00:38:49;;;;;;;5.95;2.13;;;15.90;99.90;;;;;;4904792;29;20138;-66
2023/07/26 00:41:15;;;;;;;3.03;2.00;;;15.30;99.90;;;;;;4937225;29;20046;-68
2023/07/26 00:43:40;;;;;;;3.40;1.92;;;15.30;99.90;;;;;;4937307;29;20032;-68
2023/07/26 00:46:06;;;;;;;4.95;1.98;;;15.10;99.90;;;;;;4919973;29;20040;-68
2023/07/26 00:48:33;;;;;;;3.33;2.63;;;15.30;99.90;;;;;;4937209;29;20043;-68
2023/07/26 00:51:00;;;;;;;3.38;2.10;;;15.10;99.90;;;;;;4951864;29;20040;-68
2023/07/26 00:53:26;;;;;;;4.47;2.28;;;15.30;99.90;;;;;;4920202;29;20138;-68
2023/07/26 00:55:53;;;;;;;8.52;2.35;;;15.20;99.90;;;;;;4919972;29;20048;-68
2023/07/26 00:58:19;;;;;;;4.47;2.70;;;15.20;99.90;;;;;;4919719;29;20043;-68
2023/07/26 01:00:46;;;;;;;3.45;2.25;;;15.90;99.90;;;;;;4919481;29;20417;-67
2023/07/26 01:03:15;;;;;;;4.05;2.40;;;15.30;99.90;;;;;;4919819;29;20046;-67
2023/07/26 01:05:53;;;;;;;6.95;3.30;;;15.10;99.90;;;;;;4919247;29;20036;-68
2023/07/26 01:08:34;;;;;;;4.60;2.67;;;15.00;99.90;;;;;;4936595;29;20040;-68
2023/07/26 01:11:05;;;;;;;4.45;2.33;;;14.90;99.90;;;;;;4935276;29;20504;-68
2023/07/26 01:13:44;;;;;;;2.30;2.10;;;15.10;99.90;;;;;;4951452;29;20174;-68
2023/07/26 01:16:10;;;;;;;3.88;2.63;;;15.20;99.90;;;;;;4919509;29;20051;-68
2023/07/26 01:18:36;;;;;;;3.40;2.60;;;15.00;99.90;;;;;;4919490;29;20043;-68
2023/07/26 01:21:02;;;;;;;4.00;2.15;;;14.90;99.90;;;;;;4919200;29;20048;-68
2023/07/26 01:23:28;;;;;;;6.32;3.10;;;15.00;99.90;;;;;;4951217;29;20039;-67
2023/07/26 01:25:53;;;;;;;5.40;2.83;;;14.90;99.90;;;;;;4919259;29;20039;-68
2023/07/26 01:28:19;;;;;;;6.57;2.45;;;15.00;99.90;;;;;;4936467;29;20039;-68
2023/07/26 01:30:46;;;;;;;8.35;2.58;;;15.20;99.90;;;;;;4936164;29;20054;-67
2023/07/26 01:33:13;;;;;;;4.32;2.38;;;15.70;99.90;;;;;;4919237;29;20047;-67
2023/07/26 01:35:40;;;;;;;3.80;2.20;;;15.00;99.90;;;;;;4919108;29;20048;-68
2023/07/26 01:38:07;;;;;;;4.00;2.30;;;15.10;99.90;;;;;;4919066;29;20123;-68
2023/07/26 01:40:33;;;;;;;4.75;2.42;;;15.00;99.90;;;;;;4918877;29;20044;-67
2023/07/26 01:42:59;;;;;;;5.82;2.67;;;15.30;99.90;;;;;;4919447;29;20051;-68
2023/07/26 01:45:25;;;;;;;4.13;2.58;;;15.60;99.90;;;;;;4919300;29;20043;-67
2023/07/26 01:47:52;;;;;;;7.97;2.50;;;15.10;99.90;;;;;;4936151;29;20044;-68
2023/07/26 01:50:18;;;;;;;10.27;3.15;;;15.00;99.90;;;;;;4918672;29;20047;-65
2023/07/26 01:52:43;;;;;;;4.80;3.28;;;15.00;99.90;;;;;;4935935;29;20043;-67
2023/07/26 01:55:09;;;;;;;5.15;3.22;;;14.90;99.90;;;;;;4918970;29;20048;-68
2023/07/26 01:57:34;;;;;;;4.05;3.00;;;14.80;99.90;;;;;;4918684;29;20048;-67
2023/07/26 02:00:00;;;;;;;5.55;3.13;;;15.30;99.90;;;;;;4935596;29;20562;-67
2023/07/26 02:02:26;;;;;;;3.33;2.90;;;14.90;99.90;;;;;;4918809;29;20040;-68
2023/07/26 02:04:52;;;;;;;7.15;3.40;;;14.70;99.90;;;;;;4935741;29;20036;-66
2023/07/26 02:07:17;;;;;;;4.20;3.45;;;14.50;99.90;;;;;;4918836;29;20058;-68
2023/07/26 02:09:43;;;;;;;6.63;2.83;;;14.70;99.90;;;;;;4918294;29;20043;-67
2023/07/26 02:12:09;;;;;;;4.68;3.33;;;14.60;99.90;;;;;;4950555;29;20542;-67
2023/07/26 02:14:34;;;;;;;5.75;3.17;;;14.60;99.90;;;;;;4935505;29;20054;-68
2023/07/26 02:17:00;;;;;;;6.30;3.22;;;14.50;99.90;;;;;;4934697;29;20106;-67
2023/07/26 02:19:26;;;;;;;5.43;3.22;;;;;;;;;;4918349;29;20512;-67
2023/07/26 02:21:52;;;;;;;10.00;3.03;;;14.30;99.90;;;;;;4918063;29;20046;-68
2023/07/26 02:24:17;;;;;;;8.02;3.00;;;14.50;99.90;;;;;;4935551;29;20407;-67
2023/07/26 02:26:43;;;;;;;4.05;3.00;;;14.40;99.90;;;;;;4918212;29;20123;-68
2023/07/26 02:29:09;;;;;;;4.25;3.20;;;14.50;99.90;;;;;;4918448;29;20131;-68
2023/07/26 02:31:34;;;;;;;4.10;3.08;;;14.30;99.90;;;;;;4917981;29;20047;-67
2023/07/26 02:34:00;;;;;;;5.65;3.10;;;14.50;99.90;;;;;;4918434;29;20067;-67
2023/07/26 02:36:25;;;;;;;4.97;3.47;;;14.40;99.90;;;;;;4918100;29;20050;-66
2023/07/26 02:38:51;;;;;;;4.60;2.50;;;14.50;99.90;;;;;;4934921;29;20039;-66
2023/07/26 02:41:17;;;;;;;8.07;3.40;;;15.00;99.90;;;;;;4917855;29;20048;-68
2023/07/26 02:43:42;;;;;;;5.38;3.60;;;14.60;99.90;;;;;;4918111;29;20067;-68
2023/07/26 02:46:09;;;;;;;6.30;3.63;;;14.50;99.90;;;;;;4918052;29;20047;-68
2023/07/26 02:48:34;;;;;;;7.05;3.58;;;14.50;99.90;;;;;;4934935;29;20479;-67
2023/07/26 02:51:00;;;;;;;7.70;3.50;;;15.20;99.90;;;;;;4934661;29;20071;-67
2023/07/26 02:53:26;;;;;;;4.07;3.10;;;14.50;99.90;;;;;;4934811;29;20048;-67
2023/07/26 02:55:51;;;;;;;4.82;3.25;;;14.40;99.90;;;;;;4935010;29;20472;-68
2023/07/26 02:58:17;;;;;;;4.78;3.25;;;14.40;99.90;;;;;;4934664;29;20121;-67
2023/07/26 03:00:42;;;;;;;6.28;3.63;;;14.50;99.90;;;;;;4917478;29;20047;-67
2023/07/26 03:03:08;;;;;;;6.60;3.17;;;14.40;99.90;;;;;;4917740;29;20043;-67
2023/07/26 03:05:36;;;;;;;3.97;3.10;;;14.40;99.90;;;;;;4917712;29;20062;-68
2023/07/26 03:08:02;;;;;;;5.28;3.40;;;14.30;99.90;;;;;;4917470;29;20098;-67
2023/07/26 03:10:27;;;;;;;7.55;3.67;;;14.50;99.90;;;;;;4917582;29;20075;-67
2023/07/26 03:12:54;;;;;;;7.22;3.47;;;14.90;99.90;;;;;;4934751;29;20503;-67
2023/07/26 03:15:20;;;;;;;8.88;3.53;;;14.50;99.90;;;;;;4934559;29;20044;-67
2023/07/26 03:17:45;;;;;;;5.20;3.42;;;14.50;99.90;;;;;;4934599;29;20714;-67
2023/07/26 03:20:11;;;;;;;5.22;3.40;;;14.40;99.90;;;;;;4934268;29;20036;-67
2023/07/26 03:22:37;;;;;;;5.18;3.22;;;14.50;99.90;;;;;;4917398;29;20075;-67
2023/07/26 03:25:03;;;;;;;10.15;3.28;;;14.40;99.90;;;;;;4917726;29;20036;-67
2023/07/26 03:27:29;;;;;;;5.40;2.78;;;14.30;99.90;;;;;;4917300;29;20043;-67
2023/07/26 03:29:54;;;;;;;4.80;2.60;;;15.30;99.90;;;;;;4917091;29;20062;-67
2023/07/26 03:32:20;;;;;;;5.80;2.50;;;14.50;99.90;;;;;;4949617;29;20500;-67
2023/07/26 03:34:46;;;;;;;4.35;2.35;;;14.60;99.90;;;;;;4934413;29;20123;-67
2023/07/26 03:37:11;;;;;;;6.03;2.45;;;14.40;99.90;;;;;;4901463;29;20411;-67
2023/07/26 03:39:37;;;;;;;5.15;2.88;;;14.40;99.90;;;;;;4917039;29;20115;-66
2023/07/26 03:42:02;;;;;;;6.20;2.92;;;14.50;99.90;;;;;;4917369;29;20487;-67
2023/07/26 03:44:28;;;;;;;4.10;2.08;;;14.40;99.90;;;;;;4917285;29;20039;-67
2023/07/26 03:46:54;;;;;;;3.28;1.90;;;14.60;99.90;;;;;;4917261;29;20051;-67
2023/07/26 03:49:19;;;;;;;4.13;2.30;;;14.70;99.90;;;;;;4934250;29;20040;-67
2023/07/26 03:51:45;;;;;;;5.70;2.00;;;15.10;99.90;;;;;;4933982;29;20432;-67
2023/07/26 03:54:10;;;;;;;4.53;2.13;;;15.00;99.90;;;;;;4934427;29;20071;-67
2023/07/26 03:56:36;;;;;;;3.50;2.00;;;14.60;99.90;;;;;;4916848;29;20044;-67
2023/07/26 03:59:02;;;;;;;4.10;1.80;;;15.10;99.90;;;;;;4934339;29;20035;-68
2023/07/26 04:01:27;;;;;;;4.80;2.35;;;14.70;99.90;;;;;;4934001;29;20040;-67
2023/07/26 04:03:53;;;;;;;5.43;2.05;;;14.50;99.90;;;;;;4917150;29;20123;-67
2023/07/26 04:06:19;;;;;;;2.20;1.80;;;14.20;99.90;;;;;;4916979;29;20131;-67
2023/07/26 04:08:44;;;;;;;6.68;2.03;;;14.30;99.90;;;;;;4917366;29;20055;-68
2023/07/26 04:11:11;;;;;;;4.85;2.00;;;15.10;99.90;;;;;;4916776;29;20106;-67
2023/07/26 04:13:36;;;;;;;4.60;2.38;;;14.50;99.90;;;;;;4934162;29;20091;-67
2023/07/26 04:16:15;;;;;;;2.45;1.60;;;14.40;99.90;;;;;;4917134;29;20572;-67
2023/07/26 04:18:41;;;;;;;3.25;2.20;;;14.60;99.90;;;;;;4917155;29;20039;-67
2023/07/26 04:21:08;;;;;;;6.75;2.42;;;14.50;99.90;;;;;;4916674;29;20032;-66
2023/07/26 04:23:33;;;;;;;7.20;2.72;;;14.40;99.90;;;;;;4934132;29;20040;-67
2023/07/26 04:25:59;;;;;;;3.20;2.10;;;14.40;99.90;;;;;;4921300;29;20056;-68
2023/07/26 04:28:25;;;;;;;2.63;1.90;;;14.40;99.90;;;;;;4917000;29;20043;-67
2023/07/26 04:30:51;;;;;;;5.75;1.70;;;15.00;99.90;;;;;;4916720;29;20504;-67
2023/07/26 04:33:17;;;;;;;6.25;2.30;;;14.50;99.90;;;;;;4933881;29;20047;-67
2023/07/26 04:35:44;;;;;;;2.83;2.03;;;14.50;99.90;;;;;;4916697;29;20051;-67
2023/07/26 04:38:11;;;;;;;4.65;1.80;;;14.60;99.90;;;;;;4932607;29;20032;-67
2023/07/26 04:40:37;;;;;;;3.95;2.20;;;15.20;99.90;;;;;;4919355;29;20507;-68
2023/07/26 04:43:03;;;;;;;3.67;1.65;;;14.60;99.90;;;;;;4920246;29;20039;-67
2023/07/26 04:45:29;;;;;;;3.65;1.95;;;14.90;99.90;;;;;;4936603;29;20155;-67
2023/07/26 04:47:55;;;;;;;2.65;2.05;;;14.90;99.90;;;;;;4937360;29;20040;-67
2023/07/26 04:50:21;;;;;;;4.85;2.22;;;14.60;99.90;;;;;;4937369;29;20113;-67
2023/07/26 04:52:46;;;;;;;2.55;1.60;;;14.60;99.90;;;;;;4920080;29;20047;-68
2023/07/26 04:55:12;;;;;;;2.97;1.60;;;14.70;99.90;;;;;;4919876;29;20149;-67
2023/07/26 04:57:39;;;;;;;4.40;1.95;;;14.80;99.90;;;;;;4919648;29;20050;-67
2023/07/26 05:00:06;;;;;;;6.00;2.10;;;14.60;99.90;;;;;;4919466;29;20044;-68
2023/07/26 05:02:32;;;;;;;3.50;2.75;;;14.80;99.90;;;;;;4918817;29;20496;-67
2023/07/26 05:04:58;;;;;;;3.30;1.50;;;15.20;99.90;;;;;;4900959;29;20036;-67
2023/07/26 05:07:23;;;;;;;4.03;2.25;;;14.90;99.90;;;;;;4900778;29;20071;-68
2023/07/26 05:09:49;;;;;;;4.10;1.83;;;14.70;99.90;;;;;;4917391;29;20089;-67
2023/07/26 05:12:14;;;;;;;4.15;1.80;;;14.60;99.90;;;;;;4917843;29;20036;-67
2023/07/26 05:14:41;;;;;;;6.10;1.85;;;15.10;99.90;;;;;;4917678;29;20046;-67
2023/07/26 05:17:07;;;;;;;2.53;1.50;;;14.70;99.90;;;;;;4900276;29;20055;-67
2023/07/26 05:19:32;;;;;;;4.35;1.90;;;14.60;99.90;;;;;;4917485;29;20409;-67
2023/07/26 05:21:58;;;;;;;3.60;1.55;;;14.70;99.90;;;;;;4900196;29;20417;-67
2023/07/26 05:24:24;;;;;;;2.40;1.42;;;14.70;99.90;;;;;;4900762;29;20555;-67
2023/07/26 05:26:49;;;;;;;2.65;1.70;;;14.80;99.90;;;;;;4917419;29;20042;-67
2023/07/26 05:29:15;;;;;;;4.15;2.03;;;14.80;99.90;;;;;;4917517;29;20063;-67
2023/07/26 05:31:40;;;;;;;3.10;1.67;;;15.10;99.90;;;;;;4900087;29;20055;-67
2023/07/26 05:34:06;;;;;;;2.45;1.42;;;14.50;99.90;;;;;;4900409;29;20044;-67
2023/07/26 05:36:32;;;;;;;2.90;1.50;;;14.70;99.90;;;;;;4900361;29;20558;-67
2023/07/26 05:38:57;;;;;;;2.85;1.98;;;14.80;99.90;;;;;;4917278;29;20036;-67
2023/07/26 05:41:26;;;;;;;2.35;1.58;;;14.70;99.90;;;;;;4926912;29;20043;-67
2023/07/26 05:43:52;;;;;;;3.05;2.13;;;14.60;99.90;;;;;;4925912;29;20518;-67
2023/07/26 05:46:18;;;;;;;5.13;1.42;;;14.50;99.90;;;;;;4915869;29;20040;-67
2023/07/26 05:48:43;;;;;;;6.70;1.65;;;14.80;99.90;;;;;;4935372;29;20035;-68
2023/07/26 05:51:09;;;;;;;2.70;1.70;;;14.70;99.90;;;;;;4934148;29;20175;-67
2023/07/26 05:53:36;;;;;;;3.20;1.75;;;14.90;99.90;;;;;;4938933;29;20048;-67
2023/07/26 05:56:02;;;;;;;4.07;2.30;;;14.70;99.90;;;;;;4915049;29;20048;-67
2023/07/26 05:58:28;;;;;;;4.20;2.03;;;14.70;99.90;;;;;;4935226;29;20115;-68
2023/07/26 06:00:53;;;;;;;3.92;1.92;;;14.50;99.90;;;;;;4935000;29;20510;-67
2023/07/26 06:03:19;;;;;;;5.15;2.40;;;14.40;99.90;;;;;;4919286;29;20079;-67
2023/07/26 06:05:45;;;;;;;4.18;2.33;;;14.70;99.90;;;;;;4918494;29;20066;-67
2023/07/26 06:08:10;;;;;;;7.88;2.25;;;14.90;99.90;;;;;;4935440;29;20043;-68
2023/07/26 06:10:36;;;;;;;6.15;2.20;;;14.70;99.90;;;;;;4918202;29;20404;-67
2023/07/26 06:13:02;;;;;;;5.63;2.03;;;14.70;99.90;;;;;;4918819;29;20044;-68
2023/07/26 06:15:27;;;;;;;3.78;2.05;;;14.80;99.90;;;;;;4902544;29;20094;-67
2023/07/26 06:17:53;;;;;;;5.60;2.45;;;14.80;99.90;;;;;;4919909;29;20031;-68
2023/07/26 06:20:18;;;;;;;6.20;2.60;;;14.80;99.90;;;;;;4935245;29;20040;-68
2023/07/26 06:22:44;;;;;;;8.20;2.80;;;14.80;99.90;;;;;;4931492;29;20058;-68
2023/07/26 06:25:09;;;;;;;5.72;2.17;;;14.70;99.90;;;;;;4914723;29;20514;-67
2023/07/26 06:27:35;;;;;;;3.38;2.33;;;14.80;99.90;;;;;;4913316;29;20046;-66
2023/07/26 06:30:01;;;;;;;6.38;2.80;;;14.50;99.90;;;;;;4917299;29;20153;-67
2023/07/26 06:32:26;;;;;;;3.97;2.10;;;14.70;99.90;;;;;;4930426;29;20046;-69
2023/07/26 06:34:52;;;;;;;6.35;2.28;;;14.80;99.90;;;;;;4917309;29;20047;-66
2023/07/26 06:37:18;;;;;;;5.40;2.50;;;14.60;99.90;;;;;;4910030;29;20090;-68
2023/07/26 06:39:43;;;;;;;6.05;2.08;;;14.70;99.90;;;;;;4933768;29;20047;-67
2023/07/26 06:42:09;;;;;;;8.20;2.63;;;14.70;99.90;;;;;;4917241;29;20036;-67
2023/07/26 06:44:35;;;;;;;3.60;2.10;;;14.60;99.90;;;;;;4934376;29;20039;-66
2023/07/26 06:47:00;;;;;;;4.95;2.40;;;14.60;99.90;;;;;;4917881;29;20522;-67
2023/07/26 06:49:26;;;;;;;3.38;2.05;;;14.60;99.90;;;;;;4934995;29;20062;-67
2023/07/26 06:51:52;;;;;;;5.35;1.88;;;14.70;99.90;;;;;;4917878;29;20043;-67
2023/07/26 06:54:17;;;;;;;3.25;2.10;;;14.70;99.90;;;;;;4918033;29;20043;-67
2023/07/26 06:56:43;;;;;;;3.13;2.05;;;14.90;99.90;;;;;;4934603;29;20048;-67
2023/07/26 06:59:12;;;;;;;4.68;1.95;;;15.10;99.90;;;;;;4917621;29;20046;-66
2023/07/26 07:01:38;;;;;;;2.30;1.60;;;14.90;99.90;;;;;;4916161;29;20036;-66
2023/07/26 07:04:04;;;;;;;3.20;2.17;;;14.90;99.90;;;;;;4914457;29;20440;-67
2023/07/26 07:06:29;;;;;;;4.18;1.92;;;14.90;99.90;;;;;;4915673;29;20042;-66
2023/07/26 07:08:55;;;;;;;4.28;2.13;;;14.90;99.90;;;;;;4914502;29;20047;-67
2023/07/26 07:11:20;;;;;;;3.70;1.77;;;15.50;99.90;;;;;;4914169;29;20420;-67
2023/07/26 07:13:46;;;;;;;3.80;1.98;;;14.90;99.90;;;;;;4914557;29;20043;-66
2023/07/26 07:16:12;;;;;;;4.35;2.17;;;15.50;99.90;;;;;;4915753;29;20492;-67
2023/07/26 07:18:37;;;;;;;3.10;2.10;;;15.20;99.90;;;;;;4913971;29;20052;-67
2023/07/26 07:21:03;;;;;;;3.83;2.42;;;15.30;99.90;;;;;;4915310;29;20067;-66
2023/07/26 07:23:30;;;;;;;3.25;2.50;;;15.20;99.90;;;;;;4898785;29;20043;-66
2023/07/26 07:25:56;;;;;;;4.35;3.00;;;15.00;99.90;;;;;;4915611;29;20111;-66
2023/07/26 07:28:22;;;;;;;5.15;2.90;;;15.10;99.90;;;;;;4916056;29;20036;-66
2023/07/26 07:30:47;;;;;;;6.75;3.00;;;15.10;99.90;;;;;;4915534;29;20051;-66
2023/07/26 07:33:13;;;;;;;4.53;2.42;;;15.70;99.90;;;;;;4914289;29;20044;-66
2023/07/26 07:35:39;;;;;;;4.80;2.55;;;15.30;99.90;;;;;;4898403;29;20044;-68
2023/07/26 07:38:05;;;;;;;4.43;2.83;;;15.30;99.90;;;;;;4914404;29;20459;-67
2023/07/26 07:40:31;;;;;;;4.43;2.70;;;15.50;99.90;;;;;;4915059;29;20063;-67
2023/07/26 07:42:56;;;;;;;5.63;2.97;;;15.60;99.90;;;;;;4914440;29;20059;-67
2023/07/26 07:45:22;;;;;;;3.75;2.40;;;15.90;99.90;;;;;;4915302;29;20043;-67
2023/07/26 07:47:47;;;;;;;3.17;1.80;;;16.10;99.90;;;;;;4914080;29;20096;-67
2023/07/26 07:50:13;;;;;;;3.10;1.95;;;16.40;99.90;;;;;;4915082;29;20036;-66
2023/07/26 07:52:39;;;;;;;3.85;1.83;;;16.20;99.90;;;;;;4926013;29;20042;-67
2023/07/26 07:55:05;;;;;;;4.10;2.13;;;16.00;99.90;;;;;;4917424;29;20080;-66
2023/07/26 07:57:30;;;;;;;5.40;2.13;;;16.10;99.90;;;;;;4916889;29;20099;-66
2023/07/26 07:59:56;;;;;;;3.70;2.33;;;16.20;99.90;;;;;;4934123;29;20135;-66
2023/07/26 08:02:21;;;;;;;4.70;2.00;;;16.20;99.90;;;;;;4917504;29;20043;-67
2023/07/26 08:04:47;;;;;;;2.42;1.80;;;16.50;99.90;;;;;;4934259;29;20043;-67
2023/07/26 08:07:13;;;;;;;3.50;1.95;;;16.70;99.90;;;;;;4917121;29;20456;-67
2023/07/26 08:09:41;;;;;;;3.45;1.60;;;16.70;99.90;;;;;;4933854;29;20044;-62
2023/07/26 08:12:07;;;;;;;2.38;1.58;;;16.30;99.90;;;;;;4934339;29;20039;-66
2023/07/26 08:14:33;;;;;;;2.78;1.63;;;16.30;99.90;;;;;;4902705;29;20048;-67
2023/07/26 08:16:58;;;;;;;4.03;2.00;;;17.00;99.90;;;;;;4904872;29;20047;-67
2023/07/26 08:19:24;;;;;;;4.43;2.15;;;15.80;99.90;;;;;;4937573;29;20074;-67
2023/07/26 08:21:49;;;;;;;2.13;1.63;;;16.30;99.90;;;;;;4920349;29;20048;-67
2023/07/26 08:24:15;;;;;;;3.22;1.85;;;16.50;99.90;;;;;;4920843;29;20085;-66
2023/07/26 08:26:41;;;;;;;3.95;1.80;;;16.40;99.90;;;;;;4920635;29;20534;-66
2023/07/26 08:29:06;;;;;;;2.63;1.88;;;16.40;99.90;;;;;;4937428;29;20043;-66
2023/07/26 08:31:32;;;;;;;5.18;2.15;;;16.20;99.90;;;;;;4920198;29;20103;-66
2023/07/26 08:33:58;;;;;;;7.97;2.15;;;16.30;99.90;;;;;;4920698;29;20485;-66
2023/07/26 08:36:24;;;;;;;4.32;1.95;;;16.70;99.90;;;;;;4919968;29;20052;-67
2023/07/26 08:38:49;;;;;;;6.00;3.75;;;17.60;99.90;;;;;;4937136;29;20090;-67
2023/07/26 08:41:15;;;;;;;4.50;2.28;;;17.00;99.90;;;;;;4920023;29;20483;-67
2023/07/26 08:43:44;;;;;;;3.95;2.88;;;17.40;99.90;;;;;;4904719;29;20068;-66
2023/07/26 08:46:10;;;;;;;3.35;2.47;;;18.20;99.90;;;;;;4920504;29;20054;-66
2023/07/26 08:48:40;;;;;;;5.00;3.45;;;17.70;99.90;;;;;;4920106;29;20503;-67
2023/07/26 08:51:06;;;;;;;4.95;2.85;;;17.80;99.90;;;;;;4937406;29;20122;-66
2023/07/26 08:53:33;;;;;;;5.07;2.92;;;17.90;99.90;;;;;;4919926;29;20044;-67
2023/07/26 08:55:59;;;;;;;3.60;2.60;;;18.20;99.90;;;;;;4936884;29;20506;-66
2023/07/26 08:58:25;;;;;;;3.50;3.10;;;18.60;99.90;;;;;;4936900;29;20070;-67
2023/07/26 09:00:51;;;;;;;7.15;2.70;;;18.40;99.90;;;;;;4922686;29;20079;-67
2023/07/26 09:03:17;;;;;;;3.55;2.60;;;18.20;99.90;;;;;;4922849;29;20522;-66
2023/07/26 09:05:45;;;;;;;3.97;2.58;;;17.80;99.90;;;;;;4920099;29;20047;-66
2023/07/26 09:08:11;;;;;;;3.78;2.42;;;17.50;99.90;;;;;;4919068;29;20043;-67
2023/07/26 09:10:38;;;;;;;6.10;2.30;;;16.90;99.90;;;;;;4936921;29;20039;-66
2023/07/26 09:13:14;;;;;;;4.63;2.40;;;17.10;99.90;;;;;;4936827;29;20043;-67
2023/07/26 09:15:42;;;;;;;3.53;2.25;;;17.30;99.90;;;;;;4936053;29;20067;-66
2023/07/26 09:18:12;;;;;;;7.63;2.20;;;17.60;99.90;;;;;;4936513;29;20402;-67
2023/07/26 09:20:38;;;;;;;4.95;2.65;;;17.50;99.90;;;;;;4903424;29;20038;-67
2023/07/26 09:23:04;;;;;;;4.65;2.67;;;17.80;99.90;;;;;;4937050;29;20039;-67
2023/07/26 09:25:40;;;;;;;4.93;2.47;;;17.90;99.90;;;;;;4936219;29;20043;-67
2023/07/26 09:28:11;;;;;;;3.42;2.47;;;17.70;99.90;;;;;;4936390;29;20048;-68
2023/07/26 09:30:38;;;;;;;3.13;1.90;;;18.10;99.90;;;;;;4919098;29;20043;-67
2023/07/26 09:33:06;;;;;;;3.30;1.95;;;17.90;99.90;;;;;;4919107;29;20039;-67
2023/07/26 09:35:32;;;;;;;2.47;1.77;;;18.10;99.90;;;;;;4936405;29;20071;-68
2023/07/26 09:38:08;;;;;;;2.38;1.75;;;18.20;99.90;;;;;;4936395;29;20036;-68
2023/07/26 09:40:34;;;;;;;1.65;1.33;;;18.50;99.90;;;;;;4918824;29;20035;-68
2023/07/26 09:43:00;;;;;;;2.78;1.48;;;18.40;99.90;;;;;;4919076;29;20078;-68
2023/07/26 09:45:25;;;;;;;3.47;2.05;;;18.60;99.90;;;;;;4912774;29;20092;-68
2023/07/26 09:47:52;;;;;;;2.75;1.40;;;18.60;99.90;;;;;;4935344;29;20035;-68
2023/07/26 09:50:25;;;;;;;1.52;1.30;;;18.60;99.90;;;;;;4932802;29;20114;-68
2023/07/26 09:52:55;;;;;;;2.63;1.77;;;18.50;99.90;;;;;;4902004;29;20076;-68
2023/07/26 09:55:26;;;;;;;2.00;1.55;;;18.30;99.90;;;;;;4917660;29;20040;-68
2023/07/26 09:57:54;;;;;;;2.80;1.77;;;18.20;99.90;;;;;;4918367;29;20039;-68
2023/07/26 10:00:23;;;;;;;3.70;1.70;;;18.10;99.90;;;;;;4915258;29;20047;-67
2023/07/26 10:03:03;;;;;;;2.05;1.55;;;18.20;99.90;;;;;;4918142;29;20035;-68
2023/07/26 10:05:36;;;;;;;4.82;1.98;;;18.70;99.90;;;;;;4935335;29;20044;-68
2023/07/26 10:08:02;;;;;;;2.65;1.65;;;19.00;99.90;;;;;;4935752;29;20043;-68
2023/07/26 10:10:28;;;;;;;1.63;1.48;;;19.10;99.90;;;;;;4917953;29;20560;-68
2023/07/26 10:12:57;;;;;;;3.97;1.73;;;18.80;99.90;;;;;;4935034;29;20508;-68
2023/07/26 10:15:25;;;;;;;2.53;1.52;;;18.80;99.90;;;;;;4915795;29;20079;-68
2023/07/26 10:17:52;;;;;;;3.22;2.17;;;18.50;99.90;;;;;;4934833;29;20487;-68
2023/07/26 10:20:18;;;;;;;3.22;1.90;;;18.90;99.90;;;;;;4917472;29;20031;-68
2023/07/26 10:22:45;;;;;;;3.25;1.83;;;18.20;99.90;;;;;;4934945;29;20116;-68
2023/07/26 10:25:11;;;;;;;5.32;2.88;;;18.40;99.90;;;;;;4917894;29;20138;-69
2023/07/26 10:27:38;;;;;;;3.22;1.63;;;18.40;99.90;;;;;;4918636;29;20460;-68
2023/07/26 10:30:05;;;;;;;2.83;2.03;;;18.70;99.90;;;;;;4916635;29;20055;-68
2023/07/26 10:32:31;;;;;;;3.28;2.05;;;19.20;99.90;;;;;;4915414;29;20079;-67
2023/07/26 10:34:57;;;;;;;2.88;1.92;;;19.40;99.90;;;;;;4918049;29;20534;-67
2023/07/26 10:37:29;;;;;;;2.75;1.70;;;19.50;99.90;;;;;;4934251;29;20094;-67
2023/07/26 10:39:55;;;;;;;2.83;2.00;;;20.10;99.90;;;;;;4913493;29;20047;-67
2023/07/26 10:42:26;;;;;;;3.03;2.33;;;19.70;99.90;;;;;;4920623;29;20445;-67
2023/07/26 10:44:59;;;;;;;1.98;1.45;;;20.00;99.90;;;;;;4916059;29;20092;-66
2023/07/26 10:47:25;;;;;;;3.78;1.63;;;20.00;99.90;;;;;;4898857;29;20051;-67
2023/07/26 10:49:57;;;;;;;4.25;1.55;;;;;;;;;;4883051;29;20095;-67
2023/07/26 10:52:35;;;;;;;1.70;1.13;;;20.70;99.90;;;;;;4898987;29;20052;-67
2023/07/26 10:55:00;;;;;;;2.35;1.50;;;20.90;99.90;;;;;;4899255;29;20043;-67
2023/07/26 10:57:26;;;;;;;2.70;1.40;;;20.30;99.90;;;;;;4908506;29;20048;-67
2023/07/26 11:00:04;;;;;;;3.70;1.40;;;20.20;99.90;;;;;;4925098;29;20040;-67
2023/07/26 11:03:00;;;;;;;3.10;1.85;;;20.00;99.90;;;;;;4890357;29;20496;-66
2023/07/26 11:05:29;;;;;;;2.15;1.58;;;20.60;99.90;;;;;;4909638;29;20123;-67
2023/07/26 11:08:06;;;;;;;6.20;2.30;;;20.40;99.90;;;;;;4898684;29;20362;-66
2023/07/26 11:10:33;;;;;;;2.78;1.70;;;20.20;99.90;;;;;;4906723;29;20044;-67
2023/07/26 11:13:15;;;;;;;3.42;1.65;;;20.80;99.90;;;;;;4897702;29;20385;-67
2023/07/26 11:15:52;;;;;;;5.97;2.03;;;20.70;99.90;;;;;;4895134;29;20412;-67
2023/07/26 11:18:20;;;;;;;3.28;1.73;;;20.20;99.90;;;;;;4899589;29;20319;-68
2023/07/26 11:20:49;;;;;;;3.58;1.90;;;20.30;99.90;;;;;;4913411;29;20040;-66
2023/07/26 11:23:22;;;;;;;12.27;2.90;;;20.10;99.90;;;;;;4917817;29;20051;-67
2023/07/26 11:25:51;;;;;;;8.45;2.05;;;20.50;99.90;;;;;;4920971;29;20047;-68
2023/07/26 11:28:17;;;;;;;6.00;2.47;;;20.70;99.90;;;;;;4933210;29;20701;-68
2023/07/26 11:30:47;;;;;;;7.78;3.20;;;20.80;99.90;;;;;;4915855;29;20496;-68
2023/07/26 11:33:13;;;;;;;8.10;3.10;;;20.40;99.90;;;;;;4931475;29;20096;-67
2023/07/26 11:35:42;;;;;;;7.68;3.22;;;20.30;99.90;;;;;;4916656;29;20233;-68
2023/07/26 11:38:14;;;;;;;7.60;4.20;;;19.90;99.90;;;;;;4933915;29;20086;-68
2023/07/26 11:40:41;;;;;;;4.35;2.40;;;20.00;99.90;;;;;;4890836;29;20132;-68
2023/07/26 11:43:07;;;;;;;5.25;2.45;;;19.60;99.90;;;;;;4898232;29;20040;-68
2023/07/26 11:45:35;;;;;;;3.40;2.28;;;19.60;99.90;;;;;;4898179;29;20048;-68
2023/07/26 11:48:00;;;;;;;3.28;1.98;;;19.90;99.90;;;;;;4899048;29;20044;-68
2023/07/26 11:50:26;;;;;;;5.20;1.75;;;20.20;99.90;;;;;;4901770;29;20036;-68
2023/07/26 11:53:05;;;;;;;3.28;1.65;;;20.70;99.90;;;;;;4919003;29;20647;-68
2023/07/26 11:55:35;;;;;;;4.22;1.30;;;20.80;99.90;;;;;;4902165;29;20079;-68
2023/07/26 11:58:04;;;;;;;4.53;1.52;;;21.00;99.90;;;;;;4901843;29;20032;-68
2023/07/26 12:00:36;;;;;;;3.50;1.90;;;21.60;99.90;;;;;;4901628;29;20044;-68
2023/07/26 12:03:03;;;;;;;5.22;1.45;;;21.30;99.90;;;;;;4935214;23;20393;-75
2023/07/26 12:05:29;;;;;;;5.05;1.48;;;20.90;99.90;;;;;;4921408;29;20130;-75
2023/07/26 12:07:59;;;;;;;3.72;1.60;;;20.70;99.90;;;;;;4937615;29;20039;-76
2023/07/26 12:10:29;;;;;;;6.75;1.83;;;20.70;99.90;;;;;;4936920;29;20054;-76
2023/07/26 12:12:55;;;;;;;3.03;1.80;;;21.00;99.90;;;;;;4931989;29;20055;-76
2023/07/26 12:15:23;;;;;;;3.50;1.70;;;20.80;99.90;;;;;;4918129;29;20083;-75
2023/07/26 12:18:03;;;;;;;3.17;1.65;;;20.60;99.90;;;;;;4917901;29;20464;-72
2023/07/26 12:20:30;;;;;;;3.95;1.83;;;20.60;99.90;;;;;;4918285;29;20041;-72
2023/07/26 12:23:02;;;;;;;2.20;1.50;;;20.20;99.90;;;;;;4918170;29;20044;-73
2023/07/26 12:25:36;;;;;;;3.80;1.60;;;20.20;99.90;;;;;;4919995;29;20492;-72
2023/07/26 12:28:06;;;;;;;3.40;1.45;;;20.80;99.90;;;;;;4919181;29;20036;-72
2023/07/26 12:30:34;;;;;;;3.92;1.75;;;20.90;99.90;;;;;;4917547;29;20044;-72
2023/07/26 12:33:15;;;;;;;3.30;1.40;;;21.20;99.90;;;;;;4919150;29;20055;-73
2023/07/26 12:35:44;;;;;;;5.05;1.60;;;21.30;99.90;;;;;;4917767;29;20044;-73
2023/07/26 12:38:23;;;;;;;4.85;1.65;;;20.90;99.90;;;;;;4917761;29;20103;-74
2023/07/26 12:40:50;;;;;;;2.97;1.65;;;21.10;99.90;;;;;;4906277;29;20401;-73
2023/07/26 12:43:23;;;;;;;3.88;1.38;;;20.70;99.90;;;;;;4898749;29;20096;-72
2023/07/26 12:45:51;;;;;;;;;;;20.90;99.90;;;;;;4900291;29;20044;-73
2023/07/26 12:48:17;;;;;;;4.82;1.60;;;20.80;99.90;;;;;;4898333;29;19978;-73